sensor_id;sensor_type;location;lat;lon;timestamp;pressure;altitude;pressure_sealevel;temperature;humidity
37848;BME280;23688;33.130;-117.188;2023-03-03T00:01:31;99721.72;;;14.17;48.67
37848;BME280;23688;33.130;-117.188;2023-03-03T00:03:58;99738.47;;;14.25;44.60
37848;BME280;23688;33.130;-117.188;2023-03-03T00:06:27;99739.84;;;14.12;47.23
37848;BME280;23688;33.130;-117.188;2023-03-03T00:08:55;99735.19;;;14.04;45.85
37848;BME280;23688;33.130;-117.188;2023-03-03T00:11:22;99716.47;;;13.61;45.49
37848;BME280;23688;33.130;-117.188;2023-03-03T00:13:54;99751.53;;;13.44;48.52
37848;BME280;23688;33.130;-117.188;2023-03-03T00:16:38;99747.84;;;13.13;50.39
37848;BME280;23688;33.130;-117.188;2023-03-03T00:19:17;99733.03;;;13.12;49.53
37848;BME280;23688;33.130;-117.188;2023-03-03T00:21:48;99738.25;;;13.12;47.84
37848;BME280;23688;33.130;-117.188;2023-03-03T00:24:21;99745.47;;;13.19;48.87
37848;BME280;23688;33.130;-117.188;2023-03-03T00:26:53;99754.16;;;13.44;48.93
37848;BME280;23688;33.130;-117.188;2023-03-03T00:29:35;99759.56;;;13.26;49.63
37848;BME280;23688;33.130;-117.188;2023-03-03T00:34:49;99744.94;;;13.55;49.92
37848;BME280;23688;33.130;-117.188;2023-03-03T00:40:19;99770.34;;;12.87;51.22
37848;BME280;23688;33.130;-117.188;2023-03-03T00:42:54;99770.84;;;12.77;50.89
37848;BME280;23688;33.130;-117.188;2023-03-03T00:45:37;99780.47;;;12.55;52.85
37848;BME280;23688;33.130;-117.188;2023-03-03T00:48:28;99781.84;;;12.46;54.64
37848;BME280;23688;33.130;-117.188;2023-03-03T00:50:58;99784.09;;;12.36;53.37
37848;BME280;23688;33.130;-117.188;2023-03-03T00:53:27;99776.44;;;12.41;54.53
37848;BME280;23688;33.130;-117.188;2023-03-03T00:55:54;99780.97;;;12.23;55.97
37848;BME280;23688;33.130;-117.188;2023-03-03T00:58:21;99793.91;;;12.21;58.24
37848;BME280;23688;33.130;-117.188;2023-03-03T01:00:51;99797.09;;;12.14;58.99
37848;BME280;23688;33.130;-117.188;2023-03-03T01:03:21;99789.16;;;12.33;58.69
37848;BME280;23688;33.130;-117.188;2023-03-03T01:05:48;99777.59;;;12.25;57.60
37848;BME280;23688;33.130;-117.188;2023-03-03T01:08:17;99789.13;;;12.54;58.27
37848;BME280;23688;33.130;-117.188;2023-03-03T01:10:52;99793.41;;;12.76;57.60
37848;BME280;23688;33.130;-117.188;2023-03-03T01:13:21;99783.34;;;12.63;56.02
37848;BME280;23688;33.130;-117.188;2023-03-03T01:15:48;99791.91;;;12.36;56.85
37848;BME280;23688;33.130;-117.188;2023-03-03T01:18:14;99797.56;;;12.26;59.47
37848;BME280;23688;33.130;-117.188;2023-03-03T01:20:41;99785.59;;;12.09;59.76
37848;BME280;23688;33.130;-117.188;2023-03-03T01:23:07;99783.09;;;12.33;59.38
37848;BME280;23688;33.130;-117.188;2023-03-03T01:25:34;99786.09;;;12.43;59.27
37848;BME280;23688;33.130;-117.188;2023-03-03T01:28:00;99799.59;;;12.33;59.69
37848;BME280;23688;33.130;-117.188;2023-03-03T01:30:27;99788.16;;;12.07;59.90
37848;BME280;23688;33.130;-117.188;2023-03-03T01:32:53;99804.56;;;12.05;60.38
37848;BME280;23688;33.130;-117.188;2023-03-03T01:35:20;99789.56;;;12.21;60.03
37848;BME280;23688;33.130;-117.188;2023-03-03T01:37:48;99804.56;;;12.05;60.98
37848;BME280;23688;33.130;-117.188;2023-03-03T01:40:18;99805.84;;;12.16;61.69
37848;BME280;23688;33.130;-117.188;2023-03-03T01:42:45;99789.16;;;12.11;61.89
37848;BME280;23688;33.130;-117.188;2023-03-03T01:45:24;99798.50;;;12.06;62.56
37848;BME280;23688;33.130;-117.188;2023-03-03T01:47:51;99793.47;;;11.88;62.77
37848;BME280;23688;33.130;-117.188;2023-03-03T01:53:16;99805.28;;;11.81;63.86
37848;BME280;23688;33.130;-117.188;2023-03-03T01:55:45;99790.13;;;11.71;63.49
37848;BME280;23688;33.130;-117.188;2023-03-03T01:58:22;99800.41;;;11.89;63.55
37848;BME280;23688;33.130;-117.188;2023-03-03T02:00:54;99816.31;;;11.95;63.46
37848;BME280;23688;33.130;-117.188;2023-03-03T02:03:23;99802.00;;;11.85;63.41
37848;BME280;23688;33.130;-117.188;2023-03-03T02:05:51;99816.34;;;11.75;63.92
37848;BME280;23688;33.130;-117.188;2023-03-03T02:08:22;99818.16;;;11.78;64.43
37848;BME280;23688;33.130;-117.188;2023-03-03T02:10:51;99817.31;;;11.79;65.97
37848;BME280;23688;33.130;-117.188;2023-03-03T02:13:18;99822.81;;;11.85;67.00
37848;BME280;23688;33.130;-117.188;2023-03-03T02:15:45;99822.66;;;11.82;66.71
37848;BME280;23688;33.130;-117.188;2023-03-03T02:18:16;99803.88;;;11.68;66.69
37848;BME280;23688;33.130;-117.188;2023-03-03T02:24:27;99824.31;;;11.59;67.48
37848;BME280;23688;33.130;-117.188;2023-03-03T02:26:33;99821.94;;;11.44;67.76
37848;BME280;23688;33.130;-117.188;2023-03-03T02:29:01;99824.25;;;11.38;68.00
37848;BME280;23688;33.130;-117.188;2023-03-03T02:31:29;99825.72;;;11.31;68.49
37848;BME280;23688;33.130;-117.188;2023-03-03T02:33:57;99809.09;;;11.08;69.36
37848;BME280;23688;33.130;-117.188;2023-03-03T02:36:26;99827.44;;;11.11;69.94
37848;BME280;23688;33.130;-117.188;2023-03-03T02:41:34;99822.94;;;10.88;71.22
37848;BME280;23688;33.130;-117.188;2023-03-03T02:44:04;99826.13;;;10.82;71.88
37848;BME280;23688;33.130;-117.188;2023-03-03T02:46:34;99831.81;;;10.74;72.52
37848;BME280;23688;33.130;-117.188;2023-03-03T02:49:02;99828.84;;;10.66;72.88
37848;BME280;23688;33.130;-117.188;2023-03-03T02:51:29;99826.56;;;10.54;73.74
37848;BME280;23688;33.130;-117.188;2023-03-03T02:53:56;99843.78;;;10.52;74.51
37848;BME280;23688;33.130;-117.188;2023-03-03T02:56:22;99845.13;;;10.44;75.42
37848;BME280;23688;33.130;-117.188;2023-03-03T02:58:49;99850.91;;;10.38;76.22
37848;BME280;23688;33.130;-117.188;2023-03-03T03:01:15;99852.38;;;10.33;76.67
37848;BME280;23688;33.130;-117.188;2023-03-03T03:03:42;99833.69;;;10.22;77.34
37848;BME280;23688;33.130;-117.188;2023-03-03T03:06:09;99838.66;;;10.18;78.35
37848;BME280;23688;33.130;-117.188;2023-03-03T03:08:35;99841.91;;;10.14;78.65
37848;BME280;23688;33.130;-117.188;2023-03-03T03:11:03;99851.31;;;10.12;79.10
37848;BME280;23688;33.130;-117.188;2023-03-03T03:13:30;99849.19;;;10.03;79.36
37848;BME280;23688;33.130;-117.188;2023-03-03T03:15:58;99847.59;;;9.89;79.80
37848;BME280;23688;33.130;-117.188;2023-03-03T03:18:25;99823.81;;;9.79;80.34
37848;BME280;23688;33.130;-117.188;2023-03-03T03:20:52;99851.97;;;9.90;80.71
37848;BME280;23688;33.130;-117.188;2023-03-03T03:23:19;99809.50;;;9.70;80.60
37848;BME280;23688;33.130;-117.188;2023-03-03T03:25:48;99835.16;;;9.81;81.34
37848;BME280;23688;33.130;-117.188;2023-03-03T03:28:16;99846.63;;;9.86;81.55
37848;BME280;23688;33.130;-117.188;2023-03-03T03:30:43;99839.81;;;9.89;81.73
37848;BME280;23688;33.130;-117.188;2023-03-03T03:33:10;99837.00;;;9.84;81.54
37848;BME280;23688;33.130;-117.188;2023-03-03T03:35:37;99821.44;;;9.84;81.52
37848;BME280;23688;33.130;-117.188;2023-03-03T03:38:05;99838.06;;;9.88;81.65
37848;BME280;23688;33.130;-117.188;2023-03-03T03:40:31;99838.41;;;9.77;81.56
37848;BME280;23688;33.130;-117.188;2023-03-03T03:42:57;99846.63;;;9.86;82.03
37848;BME280;23688;33.130;-117.188;2023-03-03T03:45:24;99846.41;;;9.82;82.15
37848;BME280;23688;33.130;-117.188;2023-03-03T03:47:50;99834.44;;;9.68;81.95
37848;BME280;23688;33.130;-117.188;2023-03-03T03:50:17;99842.09;;;9.64;82.77
37848;BME280;23688;33.130;-117.188;2023-03-03T03:52:43;99854.97;;;9.63;83.12
37848;BME280;23688;33.130;-117.188;2023-03-03T03:55:10;99843.91;;;9.49;83.50
37848;BME280;23688;33.130;-117.188;2023-03-03T03:57:36;99858.72;;;9.52;84.11
37848;BME280;23688;33.130;-117.188;2023-03-03T04:00:04;99870.06;;;9.54;83.83
37848;BME280;23688;33.130;-117.188;2023-03-03T04:02:31;99851.53;;;9.46;84.01
37848;BME280;23688;33.130;-117.188;2023-03-03T04:04:57;99864.06;;;9.55;84.18
37848;BME280;23688;33.130;-117.188;2023-03-03T04:07:23;99841.88;;;9.43;84.18
37848;BME280;23688;33.130;-117.188;2023-03-03T04:09:50;99863.41;;;9.59;83.81
37848;BME280;23688;33.130;-117.188;2023-03-03T04:12:16;99863.22;;;9.56;84.23
37848;BME280;23688;33.130;-117.188;2023-03-03T04:14:42;99877.00;;;9.55;84.56
37848;BME280;23688;33.130;-117.188;2023-03-03T04:17:18;99879.38;;;9.50;84.93
37848;BME280;23688;33.130;-117.188;2023-03-03T04:19:45;99871.34;;;9.46;84.97
37848;BME280;23688;33.130;-117.188;2023-03-03T04:22:11;99875.75;;;9.47;84.97
37848;BME280;23688;33.130;-117.188;2023-03-03T04:24:39;99886.91;;;9.46;85.36
37848;BME280;23688;33.130;-117.188;2023-03-03T04:27:06;99889.25;;;9.41;85.27
37848;BME280;23688;33.130;-117.188;2023-03-03T04:29:34;99895.09;;;9.37;85.59
37848;BME280;23688;33.130;-117.188;2023-03-03T04:32:01;99883.66;;;9.33;85.80
37848;BME280;23688;33.130;-117.188;2023-03-03T04:34:27;99879.06;;;9.28;85.91
37848;BME280;23688;33.130;-117.188;2023-03-03T04:36:53;99883.63;;;9.32;85.98
37848;BME280;23688;33.130;-117.188;2023-03-03T04:39:20;99894.78;;;9.31;86.48
37848;BME280;23688;33.130;-117.188;2023-03-03T04:41:46;99893.63;;;9.26;86.10
37848;BME280;23688;33.130;-117.188;2023-03-03T04:44:13;99882.97;;;9.19;86.64
37848;BME280;23688;33.130;-117.188;2023-03-03T04:46:39;99882.78;;;9.16;87.20
37848;BME280;23688;33.130;-117.188;2023-03-03T04:49:05;99889.75;;;9.17;86.92
37848;BME280;23688;33.130;-117.188;2023-03-03T04:51:33;99895.66;;;9.15;87.02
37848;BME280;23688;33.130;-117.188;2023-03-03T04:54:00;99895.44;;;9.10;87.54
37848;BME280;23688;33.130;-117.188;2023-03-03T04:56:26;99898.00;;;9.10;87.75
37848;BME280;23688;33.130;-117.188;2023-03-03T04:58:53;99916.16;;;9.10;87.81
37848;BME280;23688;33.130;-117.188;2023-03-03T05:01:20;99911.44;;;9.03;88.26
37848;BME280;23688;33.130;-117.188;2023-03-03T05:03:46;99900.47;;;8.92;88.27
37848;BME280;23688;33.130;-117.188;2023-03-03T05:06:12;99895.56;;;8.81;88.16
37848;BME280;23688;33.130;-117.188;2023-03-03T05:08:39;99910.38;;;8.83;88.55
37848;BME280;23688;33.130;-117.188;2023-03-03T05:11:07;99905.97;;;8.82;88.73
37848;BME280;23688;33.130;-117.188;2023-03-03T05:13:34;99908.31;;;8.77;88.89
37848;BME280;23688;33.130;-117.188;2023-03-03T05:16:00;99908.72;;;8.69;89.09
37848;BME280;23688;33.130;-117.188;2023-03-03T05:18:27;99921.09;;;8.74;88.95
37848;BME280;23688;33.130;-117.188;2023-03-03T05:20:53;99912.66;;;8.62;89.33
37848;BME280;23688;33.130;-117.188;2023-03-03T05:23:20;99923.72;;;8.60;89.83
37848;BME280;23688;33.130;-117.188;2023-03-03T05:25:48;99927.03;;;8.57;90.30
37848;BME280;23688;33.130;-117.188;2023-03-03T05:28:15;99933.03;;;8.56;90.77
37848;BME280;23688;33.130;-117.188;2023-03-03T05:30:42;99943.19;;;8.53;91.08
37848;BME280;23688;33.130;-117.188;2023-03-03T05:33:13;99931.63;;;8.46;91.51
37848;BME280;23688;33.130;-117.188;2023-03-03T05:35:39;99935.81;;;8.44;91.26
37848;BME280;23688;33.130;-117.188;2023-03-03T05:38:06;99936.59;;;8.43;91.29
37848;BME280;23688;33.130;-117.188;2023-03-03T05:40:32;99931.78;;;8.34;91.35
37848;BME280;23688;33.130;-117.188;2023-03-03T05:42:58;99930.78;;;8.32;92.05
37848;BME280;23688;33.130;-117.188;2023-03-03T05:45:25;99928.75;;;8.27;92.12
37848;BME280;23688;33.130;-117.188;2023-03-03T05:47:52;99924.38;;;8.26;92.04
37848;BME280;23688;33.130;-117.188;2023-03-03T05:50:20;99921.44;;;8.20;92.47
37848;BME280;23688;33.130;-117.188;2023-03-03T05:52:49;99916.00;;;8.15;93.01
37848;BME280;23688;33.130;-117.188;2023-03-03T05:55:16;99911.34;;;8.09;93.71
37848;BME280;23688;33.130;-117.188;2023-03-03T05:57:43;99914.13;;;8.12;93.95
37848;BME280;23688;33.130;-117.188;2023-03-03T06:00:14;99893.97;;;8.07;94.36
37848;BME280;23688;33.130;-117.188;2023-03-03T06:02:40;99905.72;;;8.17;94.67
37848;BME280;23688;33.130;-117.188;2023-03-03T06:05:09;99898.50;;;8.11;94.61
37848;BME280;23688;33.130;-117.188;2023-03-03T06:07:38;99905.72;;;8.17;94.99
37848;BME280;23688;33.130;-117.188;2023-03-03T06:10:05;99901.25;;;8.14;95.13
37848;BME280;23688;33.130;-117.188;2023-03-03T06:12:32;99896.47;;;8.20;94.74
37848;BME280;23688;33.130;-117.188;2023-03-03T06:14:58;99901.53;;;8.19;94.97
37848;BME280;23688;33.130;-117.188;2023-03-03T06:17:24;99890.47;;;8.21;94.69
37848;BME280;23688;33.130;-117.188;2023-03-03T06:19:51;99895.56;;;8.20;94.90
37848;BME280;23688;33.130;-117.188;2023-03-03T06:22:17;99890.47;;;8.21;94.63
37848;BME280;23688;33.130;-117.188;2023-03-03T06:24:43;99894.84;;;8.22;94.54
37848;BME280;23688;33.130;-117.188;2023-03-03T06:27:12;99887.81;;;8.20;94.37
37848;BME280;23688;33.130;-117.188;2023-03-03T06:29:38;99888.59;;;8.19;94.54
37848;BME280;23688;33.130;-117.188;2023-03-03T06:32:04;99871.59;;;8.07;94.23
37848;BME280;23688;33.130;-117.188;2023-03-03T06:34:31;99883.00;;;8.11;94.80
37848;BME280;23688;33.130;-117.188;2023-03-03T06:36:57;99880.97;;;8.05;94.74
37848;BME280;23688;33.130;-117.188;2023-03-03T06:39:24;99875.53;;;8.01;94.94
37848;BME280;23688;33.130;-117.188;2023-03-03T06:41:50;99868.47;;;7.98;94.79
37848;BME280;23688;33.130;-117.188;2023-03-03T06:44:17;99856.72;;;7.88;95.22
37848;BME280;23688;33.130;-117.188;2023-03-03T06:46:43;99861.97;;;7.90;95.75
37848;BME280;23688;33.130;-117.188;2023-03-03T06:49:10;99860.91;;;7.86;95.71
37848;BME280;23688;33.130;-117.188;2023-03-03T06:51:37;99859.75;;;7.81;96.10
37848;BME280;23688;33.130;-117.188;2023-03-03T06:54:16;99861.91;;;7.74;95.84
37848;BME280;23688;33.130;-117.188;2023-03-03T06:56:43;99868.78;;;7.73;96.14
37848;BME280;23688;33.130;-117.188;2023-03-03T06:59:15;99855.31;;;7.64;96.50
37848;BME280;23688;33.130;-117.188;2023-03-03T07:01:43;99870.88;;;7.65;96.10
37848;BME280;23688;33.130;-117.188;2023-03-03T07:06:57;99865.53;;;7.62;96.08
37848;BME280;23688;33.130;-117.188;2023-03-03T07:09:26;99851.13;;;7.51;95.86
37848;BME280;23688;33.130;-117.188;2023-03-03T07:12:00;99860.91;;;7.57;96.21
37848;BME280;23688;33.130;-117.188;2023-03-03T07:14:28;99843.59;;;7.41;96.32
37848;BME280;23688;33.130;-117.188;2023-03-03T07:17:04;99854.66;;;7.53;96.27
37848;BME280;23688;33.130;-117.188;2023-03-03T07:19:34;99863.38;;;7.55;95.98
37848;BME280;23688;33.130;-117.188;2023-03-03T07:24:37;99839.56;;;7.31;97.40
37848;BME280;23688;33.130;-117.188;2023-03-03T07:27:23;99869.69;;;7.45;97.92
37848;BME280;23688;33.130;-117.188;2023-03-03T07:29:52;99862.81;;;7.31;97.85
37848;BME280;23688;33.130;-117.188;2023-03-03T07:37:55;99866.91;;;7.27;97.89
37848;BME280;23688;33.130;-117.188;2023-03-03T07:40:37;99866.75;;;7.24;97.88
37848;BME280;23688;33.130;-117.188;2023-03-03T07:45:42;99864.66;;;7.19;98.83
37848;BME280;23688;33.130;-117.188;2023-03-03T07:48:23;99876.16;;;7.24;98.79
37848;BME280;23688;33.130;-117.188;2023-03-03T07:50:50;99854.25;;;7.17;98.42
37848;BME280;23688;33.130;-117.188;2023-03-03T07:53:25;99873.78;;;7.27;98.73
37848;BME280;23688;33.130;-117.188;2023-03-03T07:55:52;99852.38;;;7.15;98.25
37848;BME280;23688;33.130;-117.188;2023-03-03T07:58:40;99868.34;;;7.22;98.76
37848;BME280;23688;33.130;-117.188;2023-03-03T08:03:55;99845.41;;;7.14;98.21
37848;BME280;23688;33.130;-117.188;2023-03-03T08:07:19;99853.00;;;7.11;97.93
37848;BME280;23688;33.130;-117.188;2023-03-03T08:09:34;99871.34;;;7.15;98.61
37848;BME280;23688;33.130;-117.188;2023-03-03T08:12:26;99872.75;;;7.10;98.53
37848;BME280;23688;33.130;-117.188;2023-03-03T08:14:50;99869.78;;;7.04;98.75
37848;BME280;23688;33.130;-117.188;2023-03-03T08:17:22;99869.59;;;7.01;98.42
37848;BME280;23688;33.130;-117.188;2023-03-03T08:19:50;99849.38;;;6.94;97.88
37848;BME280;23688;33.130;-117.188;2023-03-03T08:22:30;99881.53;;;6.99;97.64
37848;BME280;23688;33.130;-117.188;2023-03-03T08:24:58;99876.19;;;6.96;98.02
37848;BME280;23688;33.130;-117.188;2023-03-03T08:27:24;99875.19;;;6.94;97.34
37848;BME280;23688;33.130;-117.188;2023-03-03T08:29:51;99864.69;;;6.91;97.73
37848;BME280;23688;33.130;-117.188;2023-03-03T08:32:17;99864.75;;;6.92;97.56
37848;BME280;23688;33.130;-117.188;2023-03-03T08:34:44;99868.16;;;6.91;97.48
37848;BME280;23688;33.130;-117.188;2023-03-03T08:37:10;99856.47;;;6.83;97.16
37848;BME280;23688;33.130;-117.188;2023-03-03T08:39:36;99848.44;;;6.78;97.73
37848;BME280;23688;33.130;-117.188;2023-03-03T08:42:03;99835.97;;;6.71;97.90
37848;BME280;23688;33.130;-117.188;2023-03-03T08:44:29;99828.00;;;6.68;98.19
37848;BME280;23688;33.130;-117.188;2023-03-03T08:46:55;99832.09;;;6.64;98.69
37848;BME280;23688;33.130;-117.188;2023-03-03T08:49:23;99836.44;;;6.65;99.16
37848;BME280;23688;33.130;-117.188;2023-03-03T08:51:49;99820.59;;;6.59;98.68
37848;BME280;23688;33.130;-117.188;2023-03-03T08:54:17;99798.03;;;6.42;98.55
37848;BME280;23688;33.130;-117.188;2023-03-03T08:56:45;99820.31;;;6.55;98.37
37848;BME280;23688;33.130;-117.188;2023-03-03T08:59:12;99808.00;;;6.51;98.64
37848;BME280;23688;33.130;-117.188;2023-03-03T09:01:38;99824.97;;;6.60;99.61
37848;BME280;23688;33.130;-117.188;2023-03-03T09:04:04;99815.25;;;6.56;100.00
37848;BME280;23688;33.130;-117.188;2023-03-03T09:06:31;99786.13;;;6.44;100.00
37848;BME280;23688;33.130;-117.188;2023-03-03T09:08:57;99812.69;;;6.56;100.00
37848;BME280;23688;33.130;-117.188;2023-03-03T09:11:26;99803.91;;;6.39;100.00
37848;BME280;23688;33.130;-117.188;2023-03-03T09:14:05;99789.13;;;6.24;100.00
37848;BME280;23688;33.130;-117.188;2023-03-03T09:16:36;99798.44;;;6.21;99.74
37848;BME280;23688;33.130;-117.188;2023-03-03T09:19:24;99817.91;;;6.30;100.00
37848;BME280;23688;33.130;-117.188;2023-03-03T09:21:56;99804.19;;;6.31;100.00
37848;BME280;23688;33.130;-117.188;2023-03-03T09:24:27;99798.97;;;6.29;100.00
37848;BME280;23688;33.130;-117.188;2023-03-03T09:26:55;99789.41;;;6.28;100.00
37848;BME280;23688;33.130;-117.188;2023-03-03T09:29:30;99769.31;;;6.22;100.00
37848;BME280;23688;33.130;-117.188;2023-03-03T09:32:23;99773.47;;;6.20;100.00
37848;BME280;23688;33.130;-117.188;2023-03-03T09:35:49;99772.59;;;6.20;100.00
37848;BME280;23688;33.130;-117.188;2023-03-03T09:38:32;99772.59;;;6.20;100.00
37848;BME280;23688;33.130;-117.188;2023-03-03T09:54:32;99737.31;;;6.06;100.00
37848;BME280;23688;33.130;-117.188;2023-03-03T10:05:32;99724.03;;;5.99;100.00
37848;BME280;23688;33.130;-117.188;2023-03-03T10:08:35;99713.72;;;5.99;100.00
37848;BME280;23688;33.130;-117.188;2023-03-03T10:14:12;99711.25;;;6.01;100.00
37848;BME280;23688;33.130;-117.188;2023-03-03T10:19:42;99712.75;;;5.97;100.00
37848;BME280;23688;33.130;-117.188;2023-03-03T10:22:40;99702.81;;;5.90;100.00
37848;BME280;23688;33.130;-117.188;2023-03-03T10:25:11;99709.56;;;5.88;100.00
37848;BME280;23688;33.130;-117.188;2023-03-03T10:27:51;99694.88;;;5.87;100.00
37848;BME280;23688;33.130;-117.188;2023-03-03T10:30:52;99710.16;;;5.84;100.00
37848;BME280;23688;33.130;-117.188;2023-03-03T10:39:02;99688.19;;;5.76;100.00
37848;BME280;23688;33.130;-117.188;2023-03-03T10:44:16;99674.91;;;5.70;100.00
37848;BME280;23688;33.130;-117.188;2023-03-03T10:55:20;99661.66;;;5.64;100.00
37848;BME280;23688;33.130;-117.188;2023-03-03T11:01:23;99654.81;;;5.64;100.00
37848;BME280;23688;33.130;-117.188;2023-03-03T11:03:47;99656.69;;;5.67;100.00
37848;BME280;23688;33.130;-117.188;2023-03-03T11:06:36;99656.88;;;5.70;100.00
37848;BME280;23688;33.130;-117.188;2023-03-03T11:09:46;99655.00;;;5.67;100.00
37848;BME280;23688;33.130;-117.188;2023-03-03T11:21:09;99631.91;;;5.55;100.00
37848;BME280;23688;33.130;-117.188;2023-03-03T11:41:01;99606.50;;;5.33;100.00
37848;BME280;23688;33.130;-117.188;2023-03-03T11:46:08;99609.47;;;5.40;100.00
37848;BME280;23688;33.130;-117.188;2023-03-03T11:48:39;99616.09;;;5.49;100.00
37848;BME280;23688;33.130;-117.188;2023-03-03T11:51:18;99600.66;;;5.36;100.00
37848;BME280;23688;33.130;-117.188;2023-03-03T11:54:19;99625.53;;;5.49;100.00
37848;BME280;23688;33.130;-117.188;2023-03-03T11:56:47;99628.09;;;5.49;100.00
37848;BME280;23688;33.130;-117.188;2023-03-03T12:01:55;99624.59;;;5.48;100.00
37848;BME280;23688;33.130;-117.188;2023-03-03T12:04:43;99617.56;;;5.46;100.00
37848;BME280;23688;33.130;-117.188;2023-03-03T12:07:32;99609.47;;;5.40;100.00
37848;BME280;23688;33.130;-117.188;2023-03-03T12:15:37;99620.66;;;5.40;100.00
37848;BME280;23688;33.130;-117.188;2023-03-03T12:27:07;99648.19;;;5.41;100.00
37848;BME280;23688;33.130;-117.188;2023-03-03T12:32:51;99638.72;;;5.27;100.00
37848;BME280;23688;33.130;-117.188;2023-03-03T12:43:46;99628.19;;;5.10;100.00
37848;BME280;23688;33.130;-117.188;2023-03-03T12:46:20;99632.78;;;5.14;100.00
37848;BME280;23688;33.130;-117.188;2023-03-03T12:48:49;99630.97;;;5.13;100.00
37848;BME280;23688;33.130;-117.188;2023-03-03T13:05:18;99603.44;;;4.99;100.00
37848;BME280;23688;33.130;-117.188;2023-03-03T13:10:34;99623.13;;;5.12;100.00
37848;BME280;23688;33.130;-117.188;2023-03-03T13:13:13;99615.34;;;5.10;100.00
37848;BME280;23688;33.130;-117.188;2023-03-03T13:21:29;99601.47;;;5.08;100.00
37848;BME280;23688;33.130;-117.188;2023-03-03T13:24:04;99592.56;;;5.03;100.00
37848;BME280;23688;33.130;-117.188;2023-03-03T13:26:45;99616.34;;;5.12;100.00
37848;BME280;23688;33.130;-117.188;2023-03-03T13:29:26;99604.16;;;5.10;100.00
37848;BME280;23688;33.130;-117.188;2023-03-03T13:32:04;99594.16;;;5.01;100.00
37848;BME280;23688;33.130;-117.188;2023-03-03T13:34:45;99602.88;;;5.03;100.00
37848;BME280;23688;33.130;-117.188;2023-03-03T13:37:41;99603.44;;;4.99;100.00
37848;BME280;23688;33.130;-117.188;2023-03-03T13:45:23;99604.56;;;5.03;100.00
37848;BME280;23688;33.130;-117.188;2023-03-03T13:55:52;99598.00;;;4.94;100.00
37848;BME280;23688;33.130;-117.188;2023-03-03T13:58:59;99590.59;;;4.86;100.00
37848;BME280;23688;33.130;-117.188;2023-03-03T14:04:33;99599.56;;;4.92;100.00
37848;BME280;23688;33.130;-117.188;2023-03-03T14:07:12;99600.28;;;4.90;100.00
37848;BME280;23688;33.130;-117.188;2023-03-03T14:15:15;99598.59;;;4.77;100.00
37848;BME280;23688;33.130;-117.188;2023-03-03T14:20:55;99603.72;;;4.77;100.00
37848;BME280;23688;33.130;-117.188;2023-03-03T14:26:26;99593.75;;;4.68;100.00
37848;BME280;23688;33.130;-117.188;2023-03-03T14:31:54;99629.88;;;4.83;100.00
37848;BME280;23688;33.130;-117.188;2023-03-03T14:34:40;99614.72;;;4.75;100.00
37848;BME280;23688;33.130;-117.188;2023-03-03T14:39:59;99621.84;;;4.79;100.00
37848;BME280;23688;33.130;-117.188;2023-03-03T14:42:34;99627.19;;;4.82;100.00
37848;BME280;23688;33.130;-117.188;2023-03-03T14:47:49;99645.00;;;4.92;100.00
37848;BME280;23688;33.130;-117.188;2023-03-03T14:50:36;99634.72;;;4.92;100.00
37848;BME280;23688;33.130;-117.188;2023-03-03T14:53:22;99648.06;;;5.00;100.00
37848;BME280;23688;33.130;-117.188;2023-03-03T14:58:43;99645.81;;;5.04;100.00
37848;BME280;23688;33.130;-117.188;2023-03-03T15:01:21;99658.28;;;5.11;100.00
37848;BME280;23688;33.130;-117.188;2023-03-03T15:04:03;99658.69;;;5.18;100.00
37848;BME280;23688;33.130;-117.188;2023-03-03T15:06:40;99670.56;;;5.29;100.00
37848;BME280;23688;33.130;-117.188;2023-03-03T15:09:27;99666.22;;;5.28;100.00
37848;BME280;23688;33.130;-117.188;2023-03-03T15:12:34;99680.94;;;5.44;100.00
37848;BME280;23688;33.130;-117.188;2023-03-03T15:15:25;99679.09;;;5.54;100.00
37848;BME280;23688;33.130;-117.188;2023-03-03T15:17:53;99678.88;;;5.65;100.00
37848;BME280;23688;33.130;-117.188;2023-03-03T15:31:19;99663.50;;;6.21;100.00
37848;BME280;23688;33.130;-117.188;2023-03-03T15:55:28;99618.34;;;7.94;100.00
37848;BME280;23688;33.130;-117.188;2023-03-03T16:00:48;99616.41;;;8.23;96.14
37848;BME280;23688;33.130;-117.188;2023-03-03T16:03:41;99631.63;;;8.49;95.26
37848;BME280;23688;33.130;-117.188;2023-03-03T16:06:21;99643.47;;;8.62;95.89
37848;BME280;23688;33.130;-117.188;2023-03-03T16:11:25;99641.41;;;8.89;94.13
37848;BME280;23688;33.130;-117.188;2023-03-03T16:16:53;99651.72;;;9.24;91.75
37848;BME280;23688;33.130;-117.188;2023-03-03T16:22:05;99653.88;;;9.50;89.36
37848;BME280;23688;33.130;-117.188;2023-03-03T16:24:46;99638.03;;;9.62;86.64
37848;BME280;23688;33.130;-117.188;2023-03-03T16:35:54;99645.13;;;10.41;83.81
37848;BME280;23688;33.130;-117.188;2023-03-03T16:38:34;99638.28;;;10.62;82.73
37848;BME280;23688;33.130;-117.188;2023-03-03T16:41:06;99637.59;;;10.66;83.58
37848;BME280;23688;33.130;-117.188;2023-03-03T16:46:31;99638.34;;;10.85;81.96
37848;BME280;23688;33.130;-117.188;2023-03-03T16:51:40;99639.03;;;10.60;80.76
37848;BME280;23688;33.130;-117.188;2023-03-03T16:54:15;99645.78;;;10.76;79.78
37848;BME280;23688;33.130;-117.188;2023-03-03T16:56:51;99637.78;;;10.71;79.96
37848;BME280;23688;33.130;-117.188;2023-03-03T16:59:44;99631.44;;;10.64;80.28
37848;BME280;23688;33.130;-117.188;2023-03-03T17:08:34;99649.25;;;10.97;79.75
37848;BME280;23688;33.130;-117.188;2023-03-03T17:11:07;99638.19;;;11.01;78.09
37848;BME280;23688;33.130;-117.188;2023-03-03T17:21:53;99620.97;;;11.24;75.90
37848;BME280;23688;33.130;-117.188;2023-03-03T17:30:29;99625.44;;;11.72;74.59
37848;BME280;23688;33.130;-117.188;2023-03-03T17:33:25;99627.09;;;11.92;71.92
37848;BME280;23688;33.130;-117.188;2023-03-03T17:36:02;99634.75;;;11.88;69.99